»·PEaware :: QFA457 YBBN-YSSY

QFA457 :: YBBN-YSSY

FLIGHT INFORMATION

Flight Status: Arrived
Operator:
Qantas Airways
More flights by this operator :: More flights under this callsign
Pilot: Alan S. (10569)
Aircraft: BOEING 737-800
(B738)
More flights by this aircraft type
Origin: YBBN Brisbane Intl
Australia
Destination: YSSY Kingsford Smith Intl
Australia
More flights between these airports :: More routes between these airports
Route: HUUGO5 HUUGO H62 CORKY H12 BOREE BORE8A
File this flight plan on PilotEdge
Remarks:
Altitude:
(Current/Filed)
32,000ft
Speed:
(Current/Filed)
441kts
Departed: 13-Oct-18 06:23 PM
Arrived: 13-Oct-18 07:33 PM
Distance/Time
Traveled:
406nm/1:09
Distance/Time
To Go:
Arrived

Flight Plot

Page will automatically refresh every two minutes.

Flight plan parsing failed; only flown route is shown


Map Options




Map Legend


Flown Route
Filed Route
Departure Airport
Arrival Airport
Navaid (VOR, NDB)
Fix

Horizontal Profiles

Position Reports

Time Latitude Longitude Heading Altitude Ground
Speed
13-Oct-18 18:11 -27.386982 153.121585 12 23ft 0kts
13-Oct-18 18:12 -27.386982 153.121585 12 23ft 0kts
13-Oct-18 18:13 -27.386982 153.121585 12 23ft 0kts
13-Oct-18 18:14 -27.386982 153.121585 12 23ft 0kts
13-Oct-18 18:15 -27.387047 153.121568 12 23ft 2kts
13-Oct-18 18:16 -27.387501 153.121231 87 23ft 2kts
13-Oct-18 18:17 -27.387394 153.120873 113 23ft 0kts
13-Oct-18 18:18 -27.387378 153.120830 113 23ft 0kts
13-Oct-18 18:19 -27.387381 153.120839 113 23ft 0kts
13-Oct-18 18:20 -27.387781 153.122065 104 23ft 10kts
13-Oct-18 18:21 -27.390959 153.121361 207 23ft 17kts
13-Oct-18 18:22 -27.396186 153.118340 207 23ft 23kts
13-Oct-18 18:23 -27.402013 153.115107 190 23ft 14kts
13-Oct-18 18:24 -27.402957 153.116278 116 23ft 0kts
13-Oct-18 18:25 -27.400891 153.119344 27 23ft 58kts
13-Oct-18 18:26 -27.366509 153.138787 36 884ft 165kts
13-Oct-18 18:27 -27.339637 153.181675 65 2131ft 189kts
13-Oct-18 18:28 -27.328865 153.242854 112 3857ft 228kts
13-Oct-18 18:29 -27.371861 153.292056 177 6273ft 258kts
13-Oct-18 18:30 -27.428086 153.239605 226 8495ft 291kts
13-Oct-18 18:31 -27.493730 153.184392 198 10430ft 314kts
13-Oct-18 18:32 -27.579259 153.147855 198 12369ft 340kts
13-Oct-18 18:33 -27.669226 153.108742 198 14602ft 355kts
13-Oct-18 18:34 -27.762597 153.067991 198 16874ft 366kts
13-Oct-18 18:35 -27.858585 153.026025 198 18862ft 377kts
13-Oct-18 18:36 -27.957751 152.982662 198 20727ft 389kts
13-Oct-18 18:37 -28.060244 152.937844 198 22465ft 401kts
13-Oct-18 18:38 -28.164241 152.891818 198 24027ft 412kts
13-Oct-18 18:39 -28.271946 152.843598 199 25382ft 424kts
13-Oct-18 18:40 -28.382854 152.793962 199 26636ft 436kts
13-Oct-18 18:41 -28.496968 152.742896 200 27817ft 446kts
13-Oct-18 18:42 -28.613358 152.690809 201 28913ft 456kts
13-Oct-18 18:43 -28.732249 152.637596 201 30094ft 461kts
13-Oct-18 18:44 -28.851037 152.584435 202 31387ft 460kts
13-Oct-18 18:45 -28.970558 152.530395 203 32029ft 472kts
13-Oct-18 18:46 -29.095716 152.473680 204 32005ft 496kts
13-Oct-18 18:47 -29.222278 152.416277 204 31996ft 497kts
13-Oct-18 18:48 -29.350517 152.358161 204 32085ft 497kts
13-Oct-18 18:49 -29.478963 152.299938 205 32232ft 498kts
13-Oct-18 18:50 -29.606265 152.241532 205 32237ft 496kts
13-Oct-18 18:51 -29.734337 152.182606 205 32242ft 497kts
13-Oct-18 18:52 -29.862233 152.123760 205 32245ft 498kts
13-Oct-18 18:53 -29.990003 152.064994 205 32243ft 498kts
13-Oct-18 18:54 -30.116325 152.006927 205 32249ft 497kts
13-Oct-18 18:55 -30.244790 151.947830 205 32259ft 498kts
13-Oct-18 18:56 -30.372855 151.888720 205 32248ft 498kts
13-Oct-18 18:57 -30.500794 151.828583 205 32228ft 498kts
13-Oct-18 18:58 -30.628933 151.768374 205 32223ft 498kts
13-Oct-18 18:59 -30.756680 151.708327 205 32211ft 500kts
13-Oct-18 19:00 -30.885095 151.647999 205 32223ft 498kts
13-Oct-18 19:01 -31.010800 151.588940 205 32207ft 477kts
13-Oct-18 19:02 -31.132242 151.531877 205 32210ft 477kts
13-Oct-18 19:03 -31.254584 151.474439 205 32201ft 476kts
13-Oct-18 19:04 -31.377686 151.416570 204 32210ft 476kts
13-Oct-18 19:05 -31.500860 151.361103 203 32205ft 477kts
13-Oct-18 19:06 -31.622689 151.306625 204 32211ft 476kts
13-Oct-18 19:07 -31.746459 151.251063 204 32214ft 477kts
13-Oct-18 19:08 -31.869667 151.195732 203 32199ft 480kts
13-Oct-18 19:09 -31.993828 151.140090 204 32203ft 469kts
13-Oct-18 19:10 -32.114595 151.085674 203 32239ft 471kts
13-Oct-18 19:11 -32.231875 151.032817 203 32254ft 462kts
13-Oct-18 19:12 -32.351248 150.978998 202 31210ft 460kts
13-Oct-18 19:13 -32.472059 150.927914 193 29448ft 468kts
13-Oct-18 19:14 -32.602351 150.930148 172 27552ft 480kts
13-Oct-18 19:15 -32.734885 150.954182 172 25639ft 485kts
13-Oct-18 19:16 -32.865602 150.977428 172 24400ft 477kts
13-Oct-18 19:17 -32.995492 151.000682 172 23167ft 471kts
13-Oct-18 19:18 -33.122481 151.023367 171 22105ft 464kts
13-Oct-18 19:19 -33.248536 151.045928 171 21086ft 457kts
13-Oct-18 19:20 -33.373245 151.069912 170 20146ft 452kts
13-Oct-18 19:21 -33.475722 151.089616 169 17432ft 436kts
13-Oct-18 19:22 -33.608182 151.115120 169 13013ft 400kts
13-Oct-18 19:23 -33.711360 151.135397 168 9183ft 357kts
13-Oct-18 19:24 -33.804290 151.139769 199 6216ft 316kts
13-Oct-18 19:25 -33.844684 151.080446 252 5825ft 279kts
13-Oct-18 19:26 -33.873770 150.980128 252 4895ft 269kts
13-Oct-18 19:27 -33.894758 150.910145 245 4228ft 264kts
13-Oct-18 19:28 -33.956258 150.883324 155 3477ft 251kts
13-Oct-18 19:29 -34.012438 150.923670 100 2991ft 215kts
13-Oct-18 19:30 -33.992352 150.979017 59 3050ft 164kts
13-Oct-18 19:31 -33.973382 151.037419 73 2145ft 151kts
13-Oct-18 19:32 -33.964143 151.077480 74 1527ft 144kts
13-Oct-18 19:33 -33.953138 151.123198 73 703ft 135kts
13-Oct-18 19:34 -33.941387 151.173623 74 18ft 91kts
13-Oct-18 19:35 -33.939253 151.182522 54 17ft 13kts
13-Oct-18 19:36 -33.936994 151.180551 353 17ft 11kts

Navigation Log

Ident Type
Flight plan parsing failed, navigation log unavailable